createdAt,value
2018-07-02T00:02:52.033Z,100622.00
2018-07-02T00:06:36.940Z,100622.00
2018-07-02T00:09:07.264Z,100619.00
2018-07-02T00:11:36.436Z,100614.00
2018-07-02T00:14:05.976Z,100617.00
2018-07-02T00:16:35.225Z,100614.00
2018-07-02T00:19:25.119Z,100615.00
2018-07-02T00:21:54.456Z,100627.00
2018-07-02T00:24:23.609Z,100634.00
2018-07-02T00:35:53.802Z,100620.00
2018-07-02T00:38:22.975Z,100621.00
2018-07-02T00:43:52.545Z,100633.00
2018-07-02T00:46:21.721Z,100628.00
2018-07-02T00:48:50.901Z,100628.00
2018-07-02T00:51:20.241Z,100630.00
2018-07-02T00:53:49.412Z,100632.00
2018-07-02T00:56:18.597Z,100637.00
2018-07-02T00:58:47.851Z,100631.00
2018-07-02T01:01:26.993Z,100625.00
2018-07-02T01:03:58.374Z,100630.00
2018-07-02T01:06:27.577Z,100633.00
2018-07-02T01:09:24.124Z,100633.00
2018-07-02T01:11:53.333Z,100630.00
2018-07-02T01:14:22.549Z,100628.00
2018-07-02T01:16:51.754Z,100632.00
2018-07-02T01:19:20.917Z,100632.00
2018-07-02T01:21:50.114Z,100627.00
2018-07-02T01:24:19.304Z,100627.00
2018-07-02T01:26:48.504Z,100628.00
2018-07-02T01:29:27.341Z,100618.00
2018-07-02T01:31:56.545Z,100621.00
2018-07-02T01:34:25.745Z,100619.00
2018-07-02T01:37:24.244Z,100613.00
2018-07-02T01:39:54.003Z,100619.00
2018-07-02T01:42:23.201Z,100619.00
2018-07-02T01:44:52.477Z,100608.00
2018-07-02T01:47:21.714Z,100618.00
2018-07-02T01:49:50.909Z,100618.00
2018-07-02T01:52:20.109Z,100614.00
2018-07-02T01:54:49.260Z,100610.00
2018-07-02T01:57:18.457Z,100606.00
2018-07-02T01:59:47.654Z,100607.00
2018-07-02T02:02:16.893Z,100614.00
2018-07-02T02:04:46.089Z,100603.00
2018-07-02T02:07:15.280Z,100612.00
2018-07-02T02:09:44.506Z,100617.00
2018-07-02T02:12:26.014Z,100622.00
2018-07-02T02:14:55.233Z,100618.00
2018-07-02T02:17:27.838Z,100624.00
2018-07-02T02:20:24.365Z,100625.00
2018-07-02T02:22:53.615Z,100622.00
2018-07-02T02:25:22.772Z,100625.00
2018-07-02T02:27:52.034Z,100622.00
2018-07-02T02:30:26.865Z,100634.00
2018-07-02T02:32:56.076Z,100631.00
2018-07-02T02:35:25.266Z,100636.00
2018-07-02T02:37:54.472Z,100629.00
2018-07-02T02:40:23.674Z,100635.00
2018-07-02T02:42:52.858Z,100635.00
2018-07-02T02:45:22.078Z,100635.00
2018-07-02T02:50:51.881Z,100638.00
2018-07-02T02:53:24.699Z,100631.00
2018-07-02T02:55:53.925Z,100638.00
2018-07-02T02:58:23.090Z,100640.00
2018-07-02T03:00:52.941Z,100643.00
2018-07-02T03:03:22.273Z,100644.00
2018-07-02T03:05:51.605Z,100645.00
2018-07-02T03:08:20.801Z,100645.00
2018-07-02T03:10:49.965Z,100640.00
2018-07-02T03:13:19.182Z,100642.00
2018-07-02T03:15:48.386Z,100637.00
2018-07-02T03:18:17.581Z,100638.00
2018-07-02T03:20:46.890Z,100641.00
2018-07-02T03:23:16.097Z,100637.00
2018-07-02T03:25:45.298Z,100649.00
2018-07-02T03:28:14.490Z,100650.00
2018-07-02T03:30:43.700Z,100642.00
2018-07-02T03:33:12.957Z,100647.00
2018-07-02T03:38:42.474Z,100642.00
2018-07-02T03:41:11.732Z,100639.00
2018-07-02T03:43:40.969Z,100639.00
2018-07-02T03:46:10.157Z,100645.00
2018-07-02T03:48:39.424Z,100651.00
2018-07-02T03:51:08.551Z,100644.00
2018-07-02T03:53:37.706Z,100639.00
2018-07-02T03:56:26.477Z,100641.00
2018-07-02T03:58:55.818Z,100636.00
2018-07-02T04:01:25.103Z,100635.00
2018-07-02T04:03:54.253Z,100638.00
2018-07-02T04:06:23.490Z,100638.00
2018-07-02T04:08:52.733Z,100642.00
2018-07-02T04:11:21.941Z,100650.00
2018-07-02T04:13:51.177Z,100641.00
2018-07-02T04:16:20.356Z,100635.00
2018-07-02T04:18:49.565Z,100638.00
2018-07-02T04:21:19.018Z,100644.00
2018-07-02T04:26:48.626Z,100648.00
2018-07-02T04:29:17.876Z,100650.00
2018-07-02T04:34:47.448Z,100648.00
2018-07-02T04:37:26.923Z,100658.00
2018-07-02T04:39:56.382Z,100652.00
2018-07-02T04:42:25.717Z,100657.00
2018-07-02T04:44:54.942Z,100661.00
2018-07-02T04:47:24.204Z,100662.00
2018-07-02T04:49:53.457Z,100671.00
2018-07-02T04:52:22.678Z,100660.00
2018-07-02T04:54:51.878Z,100655.00
2018-07-02T04:57:21.099Z,100650.00
2018-07-02T04:59:51.264Z,100647.00
2018-07-02T05:02:20.566Z,100655.00
2018-07-02T05:04:49.802Z,100644.00
2018-07-02T05:07:19.033Z,100654.00
2018-07-02T05:09:48.274Z,100651.00
2018-07-02T05:12:17.521Z,100656.00
2018-07-02T05:14:46.701Z,100654.00
2018-07-02T05:17:16.085Z,100654.00
2018-07-02T05:19:45.300Z,100659.00
2018-07-02T05:22:14.560Z,100660.00
2018-07-02T05:24:43.889Z,100659.00
2018-07-02T05:27:13.121Z,100664.00
2018-07-02T05:29:42.329Z,100668.00
2018-07-02T05:32:11.575Z,100663.00
2018-07-02T05:34:40.746Z,100659.00
2018-07-02T05:37:09.950Z,100652.00
2018-07-02T05:39:39.210Z,100653.00
2018-07-02T05:42:08.441Z,100652.00
2018-07-02T05:44:37.608Z,100648.00
2018-07-02T05:47:25.211Z,100642.00
2018-07-02T05:49:54.365Z,100633.00
2018-07-02T05:52:23.599Z,100636.00
2018-07-02T05:54:52.824Z,100637.00
2018-07-02T05:57:22.009Z,100646.00
2018-07-02T05:59:51.221Z,100646.00
2018-07-02T06:02:20.373Z,100637.00
2018-07-02T06:04:49.534Z,100648.00
2018-07-02T06:07:18.782Z,100641.00
2018-07-02T06:09:48.038Z,100636.00
2018-07-02T06:12:17.270Z,100640.00
2018-07-02T06:17:46.850Z,100652.00
2018-07-02T06:20:16.117Z,100650.00
2018-07-02T06:22:45.336Z,100647.00
2018-07-02T06:25:14.516Z,100649.00
2018-07-02T06:27:43.711Z,100643.00
2018-07-02T06:30:12.929Z,100645.00
2018-07-02T06:32:42.141Z,100648.00
2018-07-02T06:35:11.280Z,100640.00
2018-07-02T06:37:40.534Z,100635.00
2018-07-02T06:40:09.801Z,100637.00
2018-07-02T06:45:38.905Z,100632.00
2018-07-02T06:48:08.105Z,100643.00
2018-07-02T06:50:37.380Z,100642.00
2018-07-02T06:53:07.043Z,100636.00
2018-07-02T06:55:36.212Z,100643.00
2018-07-02T06:58:05.547Z,100626.00
2018-07-02T07:00:34.710Z,100637.00
2018-07-02T07:03:03.934Z,100633.00
2018-07-02T07:05:33.150Z,100630.00
2018-07-02T07:08:02.321Z,100647.00
2018-07-02T07:10:31.466Z,100634.00
2018-07-02T07:13:00.693Z,100636.00
2018-07-02T07:15:29.923Z,100643.00
2018-07-02T07:17:59.109Z,100646.00
2018-07-02T07:20:28.280Z,100629.00
2018-07-02T07:23:24.592Z,100634.00
2018-07-02T07:25:53.911Z,100634.00
2018-07-02T07:28:23.054Z,100627.00
2018-07-02T07:30:52.364Z,100623.00
2018-07-02T07:33:27.762Z,100633.00
2018-07-02T07:35:56.941Z,100623.00
2018-07-02T07:38:26.116Z,100628.00
2018-07-02T07:40:55.720Z,100628.00
2018-07-02T07:43:24.937Z,100621.00
2018-07-02T07:45:54.130Z,100628.00
2018-07-02T07:48:23.389Z,100627.00
2018-07-02T07:50:52.620Z,100616.00
2018-07-02T07:53:27.801Z,100611.00
2018-07-02T07:55:57.013Z,100612.00
2018-07-02T07:58:26.242Z,100608.00
2018-07-02T08:00:55.397Z,100615.00
2018-07-02T08:03:24.609Z,100618.00
2018-07-02T08:05:53.811Z,100629.00
2018-07-02T08:08:23.019Z,100622.00
2018-07-02T08:10:52.173Z,100625.00
2018-07-02T08:13:21.358Z,100629.00
2018-07-02T08:15:50.613Z,100628.00
2018-07-02T08:18:19.796Z,100624.00
2018-07-02T08:20:49.056Z,100623.00
2018-07-02T08:23:18.283Z,100618.00
2018-07-02T08:25:47.548Z,100613.00
2018-07-02T08:28:16.688Z,100616.00
2018-07-02T08:30:46.930Z,100614.00
2018-07-02T08:33:28.405Z,100616.00
2018-07-02T08:35:57.623Z,100612.00
2018-07-02T08:38:26.768Z,100612.00
2018-07-02T08:40:55.925Z,100611.00
2018-07-02T08:43:25.142Z,100619.00
2018-07-02T08:45:54.517Z,100606.00
2018-07-02T08:48:23.697Z,100611.00
2018-07-02T08:50:52.941Z,100605.00
2018-07-02T08:53:22.298Z,100610.00
2018-07-02T08:55:51.469Z,100602.00
2018-07-02T08:58:20.687Z,100606.00
2018-07-02T09:00:49.878Z,100606.00
2018-07-02T09:03:26.732Z,100597.00
2018-07-02T09:05:55.927Z,100600.00
2018-07-02T09:08:25.210Z,100594.00
2018-07-02T09:10:54.442Z,100595.00
2018-07-02T09:13:23.669Z,100590.00
2018-07-02T09:15:52.982Z,100575.00
2018-07-02T09:18:22.202Z,100579.00
2018-07-02T09:20:51.538Z,100581.00
2018-07-02T09:23:20.717Z,100591.00
2018-07-02T09:25:49.857Z,100578.00
2018-07-02T09:28:19.193Z,100574.00
2018-07-02T09:30:48.716Z,100570.00
2018-07-02T09:33:17.791Z,100568.00
2018-07-02T09:35:46.952Z,100562.00
2018-07-02T09:38:25.581Z,100567.00
2018-07-02T09:40:54.629Z,100578.00
2018-07-02T09:43:24.994Z,100567.00
2018-07-02T09:45:54.126Z,100569.00
2018-07-02T09:48:23.341Z,100570.00
2018-07-02T09:50:52.618Z,100579.00
2018-07-02T09:53:21.921Z,100569.00
2018-07-02T09:55:51.116Z,100578.00
2018-07-02T09:58:26.597Z,100578.00
2018-07-02T10:00:55.762Z,100575.00
2018-07-02T10:03:24.961Z,100570.00
2018-07-02T10:05:54.112Z,100562.00
2018-07-02T10:08:23.289Z,100569.00
2018-07-02T10:10:52.461Z,100556.00
2018-07-02T10:13:21.762Z,100573.00
2018-07-02T10:15:52.462Z,100572.00
2018-07-02T10:18:21.673Z,100570.00
2018-07-02T10:20:50.880Z,100576.00
2018-07-02T10:23:20.041Z,100579.00
2018-07-02T10:28:49.779Z,100565.00
2018-07-02T10:31:19.195Z,100565.00
2018-07-02T10:36:48.251Z,100563.00
2018-07-02T10:39:17.513Z,100563.00
2018-07-02T10:41:46.669Z,100573.00
2018-07-02T10:44:15.864Z,100572.00
2018-07-02T10:46:45.027Z,100571.00
2018-07-02T10:49:14.197Z,100568.00
2018-07-02T10:51:43.414Z,100567.00
2018-07-02T10:54:25.982Z,100576.00
2018-07-02T10:56:55.262Z,100573.00
2018-07-02T10:59:24.418Z,100566.00
2018-07-02T11:01:53.662Z,100567.00
2018-07-02T11:04:22.830Z,100565.00
2018-07-02T11:06:51.985Z,100561.00
2018-07-02T11:09:21.192Z,100558.00
2018-07-02T11:11:50.356Z,100555.00
2018-07-02T11:14:19.575Z,100564.00
2018-07-02T11:16:48.809Z,100563.00
2018-07-02T11:19:18.026Z,100557.00
2018-07-02T11:24:47.394Z,100538.00
2018-07-02T11:27:26.549Z,100547.00
2018-07-02T11:29:55.832Z,100541.00
2018-07-02T11:32:25.165Z,100537.00
2018-07-02T11:34:54.391Z,100538.00
2018-07-02T11:37:23.609Z,100529.00
2018-07-02T11:39:52.838Z,100535.00
2018-07-02T11:42:21.995Z,100542.00
2018-07-02T11:44:51.162Z,100542.00
2018-07-02T11:47:20.571Z,100541.00
2018-07-02T11:52:50.213Z,100546.00
2018-07-02T11:55:19.357Z,100533.00
2018-07-02T11:57:48.554Z,100544.00
2018-07-02T12:00:17.701Z,100540.00
2018-07-02T12:02:46.844Z,100546.00
2018-07-02T12:05:16.062Z,100538.00
2018-07-02T12:09:14.833Z,100544.00
2018-07-02T12:11:44.029Z,100555.00
2018-07-02T12:14:13.177Z,100544.00
2018-07-02T12:16:42.345Z,100542.00
2018-07-02T12:19:11.504Z,100533.00
2018-07-02T12:21:40.681Z,100529.00
2018-07-02T12:24:09.908Z,100536.00
2018-07-02T12:29:39.486Z,100530.00
2018-07-02T12:32:28.058Z,100535.00
2018-07-02T12:34:57.277Z,100538.00
2018-07-02T12:37:26.433Z,100539.00
2018-07-02T12:39:55.641Z,100539.00
2018-07-02T12:42:28.578Z,100538.00
2018-07-02T12:44:57.862Z,100538.00
2018-07-02T12:47:27.122Z,100535.00
2018-07-02T12:49:56.271Z,100529.00
2018-07-02T12:52:25.414Z,100526.00
2018-07-02T12:55:42.332Z,100532.00
2018-07-02T12:58:11.501Z,100535.00
2018-07-02T13:00:40.758Z,100533.00
2018-07-02T13:03:09.925Z,100528.00
2018-07-02T13:05:39.080Z,100532.00
2018-07-02T13:08:08.354Z,100529.00
2018-07-02T13:10:37.550Z,100530.00
2018-07-02T13:13:25.519Z,100534.00
2018-07-02T13:15:54.706Z,100528.00
2018-07-02T13:18:23.887Z,100531.00
2018-07-02T13:20:53.017Z,100521.00
2018-07-02T13:23:28.173Z,100523.00
2018-07-02T13:25:57.310Z,100529.00
2018-07-02T13:28:26.923Z,100529.00
2018-07-02T13:30:56.127Z,100525.00
2018-07-02T13:33:25.293Z,100518.00
2018-07-02T13:35:54.521Z,100529.00
2018-07-02T13:38:23.702Z,100524.00
2018-07-02T13:43:53.283Z,100525.00
2018-07-02T13:46:22.430Z,100516.00
2018-07-02T13:48:51.616Z,100518.00
2018-07-02T13:51:27.301Z,100513.00
2018-07-02T13:53:56.478Z,100506.00
2018-07-02T13:56:25.604Z,100501.00
2018-07-02T13:58:54.774Z,100506.00
2018-07-02T14:01:24.131Z,100502.00
2018-07-02T14:03:53.280Z,100500.00
2018-07-02T14:06:22.470Z,100501.00
2018-07-02T14:11:36.156Z,100500.00
2018-07-02T14:14:05.450Z,100508.00
2018-07-02T14:16:34.733Z,100503.00
2018-07-02T14:19:26.742Z,100514.00
2018-07-02T14:21:55.952Z,100500.00
2018-07-02T14:24:25.170Z,100499.00
2018-07-02T14:26:54.360Z,100501.00
2018-07-02T14:29:23.529Z,100503.00
2018-07-02T14:31:52.721Z,100505.00
2018-07-02T14:34:21.938Z,100495.00
2018-07-02T14:39:55.090Z,100491.00
2018-07-02T14:42:24.268Z,100483.00
2018-07-02T14:44:53.766Z,100476.00
2018-07-02T14:47:22.828Z,100486.00
2018-07-02T14:49:52.060Z,100484.00
2018-07-02T14:52:21.250Z,100484.00
2018-07-02T14:54:50.425Z,100488.00
2018-07-02T14:57:19.630Z,100484.00
2018-07-02T14:59:48.875Z,100490.00
2018-07-02T15:09:49.511Z,100487.00
2018-07-02T15:12:18.668Z,100490.00
2018-07-02T15:17:47.782Z,100489.00
2018-07-02T15:20:17.002Z,100483.00
2018-07-02T15:22:46.211Z,100491.00
2018-07-02T15:25:15.415Z,100484.00
2018-07-02T15:27:44.568Z,100481.00
2018-07-02T15:30:13.812Z,100473.00
2018-07-02T15:32:42.957Z,100467.00
2018-07-02T15:35:12.132Z,100468.00
2018-07-02T15:37:41.353Z,100459.00
2018-07-02T15:40:10.624Z,100461.00
2018-07-02T15:45:30.857Z,100457.00
2018-07-02T15:48:25.254Z,100465.00
2018-07-02T15:50:54.477Z,100463.00
2018-07-02T15:53:23.644Z,100460.00
2018-07-02T15:55:54.711Z,100454.00
2018-07-02T15:58:24.057Z,100456.00
2018-07-02T16:00:53.326Z,100454.00
2018-07-02T16:03:22.893Z,100449.00
2018-07-02T16:05:52.054Z,100459.00
2018-07-02T16:08:21.335Z,100455.00
2018-07-02T16:17:07.674Z,100452.00
2018-07-02T16:19:36.874Z,100445.00
2018-07-02T16:22:06.277Z,100442.00
2018-07-02T16:24:35.458Z,100448.00
2018-07-02T16:27:04.731Z,100441.00
2018-07-02T16:32:33.996Z,100437.00
2018-07-02T16:35:03.329Z,100441.00
2018-07-02T16:37:32.485Z,100438.00
2018-07-02T16:40:01.901Z,100435.00
2018-07-02T16:42:33.463Z,100432.00
2018-07-02T16:45:06.774Z,100429.00
2018-07-02T16:47:38.820Z,100427.00
2018-07-02T16:50:10.670Z,100435.00
2018-07-02T16:52:41.085Z,100438.00
2018-07-02T16:55:11.062Z,100430.00
2018-07-02T16:57:41.575Z,100424.00
2018-07-02T17:00:12.224Z,100419.00
2018-07-02T17:02:43.133Z,100428.00
2018-07-02T17:05:13.792Z,100430.00
2018-07-02T17:07:43.625Z,100428.00
2018-07-02T17:10:27.707Z,100432.00
2018-07-02T17:12:58.347Z,100439.00
2018-07-02T17:15:29.131Z,100437.00
2018-07-02T17:17:59.272Z,100429.00
2018-07-02T17:21:51.934Z,100436.00
2018-07-02T17:24:27.424Z,100422.00
2018-07-02T17:26:57.286Z,100423.00
2018-07-02T17:29:27.825Z,100419.00
2018-07-02T17:31:59.030Z,100423.00
2018-07-02T17:34:31.415Z,100427.00
2018-07-02T17:37:02.515Z,100420.00
2018-07-02T17:39:34.450Z,100418.00
2018-07-02T17:42:07.309Z,100422.00
2018-07-02T17:44:40.011Z,100422.00
2018-07-02T17:47:11.105Z,100425.00
2018-07-02T17:49:42.934Z,100422.00
2018-07-02T17:52:27.241Z,100425.00
2018-07-02T17:54:57.436Z,100425.00
2018-07-02T17:57:26.696Z,100421.00
2018-07-02T18:01:35.231Z,100421.00
2018-07-02T18:04:23.090Z,100422.00
2018-07-02T18:09:52.210Z,100433.00
2018-07-02T18:12:21.445Z,100432.00
2018-07-02T18:17:50.828Z,100439.00
2018-07-02T18:20:27.765Z,100433.00
2018-07-02T18:23:25.896Z,100423.00
2018-07-02T18:27:31.784Z,100435.00
2018-07-02T18:30:26.472Z,100433.00
2018-07-02T18:41:50.200Z,100436.00
2018-07-02T18:44:27.015Z,100438.00
2018-07-02T18:47:25.901Z,100434.00
2018-07-02T18:49:55.571Z,100443.00
2018-07-02T18:52:28.215Z,100433.00
2018-07-02T18:54:57.461Z,100436.00
2018-07-02T18:57:28.063Z,100443.00
2018-07-02T19:00:24.638Z,100437.00
2018-07-02T19:16:49.181Z,100446.00
2018-07-02T19:19:28.019Z,100448.00
2018-07-02T19:22:26.300Z,100446.00
2018-07-02T19:24:55.515Z,100449.00
2018-07-02T19:27:28.562Z,100454.00
2018-07-02T19:30:25.094Z,100455.00
2018-07-02T19:35:54.256Z,100453.00
2018-07-02T19:38:24.184Z,100461.00
2018-07-02T19:40:53.489Z,100456.00
2018-07-02T19:43:23.137Z,100459.00
2018-07-02T19:45:52.372Z,100448.00
2018-07-02T19:48:21.569Z,100456.00
2018-07-02T19:50:50.870Z,100451.00
2018-07-02T19:53:20.077Z,100457.00
2018-07-02T19:55:49.243Z,100451.00
2018-07-02T19:58:28.545Z,100465.00
2018-07-02T20:00:57.890Z,100463.00
2018-07-02T20:03:27.139Z,100463.00
2018-07-02T20:05:56.293Z,100470.00
2018-07-02T20:08:25.470Z,100464.00
2018-07-02T20:10:54.725Z,100465.00
2018-07-02T20:13:23.910Z,100475.00
2018-07-02T20:15:53.109Z,100463.00
2018-07-02T20:18:22.373Z,100465.00
2018-07-02T20:20:51.554Z,100467.00
2018-07-02T20:23:26.806Z,100467.00
2018-07-02T20:26:24.901Z,100456.00
2018-07-02T20:28:54.111Z,100459.00
2018-07-02T20:31:23.872Z,100456.00
2018-07-02T20:33:53.050Z,100456.00
2018-07-02T20:36:22.396Z,100461.00
2018-07-02T20:38:52.029Z,100458.00
2018-07-02T20:41:21.195Z,100460.00
2018-07-02T20:43:50.401Z,100457.00
2018-07-02T20:46:19.579Z,100461.00
2018-07-02T20:48:48.775Z,100468.00
2018-07-02T20:51:28.412Z,100462.00
2018-07-02T20:54:37.004Z,100455.00
2018-07-02T20:57:06.260Z,100467.00
2018-07-02T20:59:35.393Z,100463.00
2018-07-02T21:02:04.540Z,100455.00
2018-07-02T21:04:34.450Z,100457.00
2018-07-02T21:07:03.936Z,100460.00
2018-07-02T21:09:33.165Z,100463.00
2018-07-02T21:12:02.341Z,100471.00
2018-07-02T21:14:31.481Z,100474.00
2018-07-02T21:17:00.618Z,100461.00
2018-07-02T21:19:29.797Z,100465.00
2018-07-02T21:22:25.242Z,100459.00
2018-07-02T21:24:54.374Z,100460.00
2018-07-02T21:27:23.554Z,100464.00
2018-07-02T21:29:52.738Z,100460.00
2018-07-02T21:32:21.884Z,100451.00
2018-07-02T21:34:51.070Z,100454.00
2018-07-02T21:37:20.221Z,100457.00
2018-07-02T21:39:49.352Z,100456.00
2018-07-02T21:42:28.542Z,100462.00
2018-07-02T21:44:58.153Z,100464.00
2018-07-02T21:47:27.354Z,100456.00
2018-07-02T21:49:56.861Z,100459.00
2018-07-02T21:52:26.098Z,100454.00
2018-07-02T21:54:55.241Z,100453.00
2018-07-02T21:57:24.427Z,100454.00
2018-07-02T21:59:53.409Z,100448.00
2018-07-02T22:02:22.557Z,100453.00
2018-07-02T22:04:51.746Z,100453.00
2018-07-02T22:07:20.872Z,100447.00
2018-07-02T22:09:50.039Z,100450.00
2018-07-02T22:12:27.302Z,100453.00
2018-07-02T22:14:56.546Z,100446.00
2018-07-02T22:17:25.685Z,100445.00
2018-07-02T22:19:54.860Z,100438.00
2018-07-02T22:22:24.000Z,100430.00
2018-07-02T22:27:54.142Z,100436.00
2018-07-02T22:30:23.276Z,100427.00
2018-07-02T22:32:52.425Z,100434.00
2018-07-02T22:35:21.610Z,100427.00
2018-07-02T22:37:50.741Z,100426.00
2018-07-02T22:40:19.905Z,100438.00
2018-07-02T22:42:49.101Z,100439.00
2018-07-02T22:45:20.179Z,100427.00
2018-07-02T22:47:49.374Z,100431.00
2018-07-02T22:50:18.506Z,100425.00
2018-07-02T22:52:47.513Z,100432.00
2018-07-02T22:55:16.830Z,100425.00
2018-07-02T22:57:45.982Z,100423.00
2018-07-02T23:00:15.123Z,100425.00
2018-07-02T23:02:44.296Z,100419.00
2018-07-02T23:05:13.437Z,100419.00
2018-07-02T23:07:42.573Z,100424.00
2018-07-02T23:10:11.873Z,100429.00
2018-07-02T23:12:41.013Z,100429.00
2018-07-02T23:15:27.189Z,100425.00
2018-07-02T23:17:56.337Z,100421.00
2018-07-02T23:20:25.460Z,100429.00
2018-07-02T23:25:54.676Z,100433.00
2018-07-02T23:28:27.641Z,100431.00
2018-07-02T23:30:56.928Z,100419.00
2018-07-02T23:33:26.060Z,100422.00
2018-07-02T23:35:55.193Z,100419.00
2018-07-02T23:38:24.481Z,100425.00
2018-07-02T23:40:53.629Z,100425.00
2018-07-02T23:43:28.686Z,100432.00
2018-07-02T23:45:58.109Z,100421.00
2018-07-02T23:48:27.253Z,100426.00
2018-07-02T23:50:56.408Z,100422.00
2018-07-02T23:53:28.893Z,100426.00
2018-07-02T23:56:26.774Z,100427.00
2018-07-02T23:58:55.913Z,100439.00
